Strona główna
METAR-TAF:

METAR-TAF

Lotnisko :

Port lotniczy Harbin-Taiping

Harbin, Chiny

Szerokość geograficzna: 45-45N, Długość geograficzna: 126-46E, wysokość: 143 m

Aktualna obserwacja pogody

Raport powstał 16 minut temu, godzina 10:00 UTC
Wiatr 4 kt od południowy wschód, zmienny między wschód i południe
Temperatura -10°C
Wilgotność 48%
Ciśnienie 1025 hPa
Widzialność 10 km lub więcej
Brak chmur poniżej 1500 m i brak chmur cumulonimbus

METAR: ZYHB 121000Z 13002MPS 100V170 CAVOK M10/M19 Q1025 NOSIG

czas: 18:16 (10:16 UTC)

Prognoza

Raport powstał 7 godziny i 14 minut temu, godzina 03:02 UTC
Prognoza ważna od 12 godzina 06 UTC do 13 godzina 06 UTC
Wiatr 6 kt od południe
Widzialność: 5000 m
Rozproszone chmury na wysokości 3000 ft
dym

TAF: ZYHB 120302Z 1206/1306 18003MPS 5000 FU SCT030 TXM09/06Z TNM18/23Z

Obserwacja i prognoza pogody dla ponad 4000 lotnisk (raport METAR i TAF).

Dostępne stacje oznaczono żółtymi i czerwonymi punktami na mapie.

Najedź kursorem aby zobaczyć nazwę stacji.

Kliknij aby zobaczyć obserwacje i prognozy pogody.

Aby zmienić mapę: kliknij na zielony przycisk z czarnym krzyżykiem, aby powiększyć; na zielony przycisk z myślnikiem, aby pomniejszyć; na zielone strzałki, aby przejść do map sąsiednich.


METAR-TAF: